Time;durP1;ratioP1;P1;durP2;ratioP2;P2;SDS_P1;SDS_P2;PMS_P1;PMS_P2;Temp;Humidity;BMP_temperature;BMP_pressure;BME280_temperature;BME280_humidity;BME280_pressure;Samples;Min_cycle;Max_cycle;Signal;HPM_P1;HPM_P2
2022/10/11 00:00:35;;;;;;;1.63;1.53;;;22.40;43.20;;;;;;5005451;28;20775;-65
2022/10/11 00:03:01;;;;;;;1.50;1.40;;;22.40;43.20;;;;;;5005887;28;20254;-66
2022/10/11 00:05:27;;;;;;;1.27;1.17;;;22.40;43.30;;;;;;5009469;28;20469;-60
2022/10/11 00:07:53;;;;;;;1.37;1.27;;;22.40;43.20;;;;;;5013680;28;20530;-62
2022/10/11 00:10:19;;;;;;;1.40;1.30;;;22.40;43.90;;;;;;5005637;28;20219;-61
2022/10/11 00:12:45;;;;;;;1.40;1.30;;;22.40;43.20;;;;;;5003091;28;20233;-63
2022/10/11 00:15:13;;;;;;;1.30;1.20;;;22.40;43.20;;;;;;5015184;28;20456;-63
2022/10/11 00:17:38;;;;;;;2.30;1.27;;;22.40;43.20;;;;;;5007481;28;20979;-61
2022/10/11 00:20:04;;;;;;;1.47;1.37;;;22.40;43.20;;;;;;5010802;28;20570;-60
2022/10/11 00:22:30;;;;;;;1.50;1.40;;;22.40;43.20;;;;;;5011898;28;20226;-61
2022/10/11 00:24:57;;;;;;;1.33;1.23;;;22.40;43.20;;;;;;4993028;28;20667;-65
2022/10/11 00:27:23;;;;;;;1.47;1.37;;;22.40;43.20;;;;;;5007646;28;20299;-65
2022/10/11 00:29:48;;;;;;;1.60;1.50;;;22.40;43.20;;;;;;5013680;28;21061;-62
2022/10/11 00:32:14;;;;;;;1.40;1.30;;;22.40;43.20;;;;;;5009360;28;20227;-62
2022/10/11 00:34:39;;;;;;;3.07;1.20;;;22.40;43.20;;;;;;5006445;28;20251;-64
2022/10/11 00:37:05;;;;;;;1.30;1.10;;;22.40;43.20;;;;;;5008018;28;20872;-61
2022/10/11 00:39:31;;;;;;;3.63;1.50;;;22.40;43.30;;;;;;5011874;28;20243;-63
2022/10/11 00:41:57;;;;;;;1.40;1.30;;;22.40;44.10;;;;;;5004496;28;20222;-65
2022/10/11 00:44:25;;;;;;;1.43;1.33;;;22.40;43.30;;;;;;5011471;28;20264;-62
2022/10/11 00:47:05;;;;;;;1.40;1.30;;;22.40;43.20;;;;;;4993872;28;20464;-66
2022/10/11 00:49:59;;;;;;;1.20;1.10;;;22.40;43.30;;;;;;4995882;28;20898;-64
2022/10/11 00:52:30;;;;;;;1.30;1.20;;;22.40;43.20;;;;;;5000986;28;20498;-62
2022/10/11 00:55:00;;;;;;;1.40;1.30;;;22.40;43.30;;;;;;5007743;28;20468;-62
2022/10/11 00:57:29;;;;;;;1.27;1.17;;;22.40;43.20;;;;;;5006979;28;20987;-60
2022/10/11 00:59:55;;;;;;;1.47;1.37;;;22.40;43.30;;;;;;5005261;28;21213;-61
2022/10/11 01:02:22;;;;;;;1.33;1.23;;;22.40;43.30;;;;;;5007147;28;20545;-62
2022/10/11 01:04:48;;;;;;;1.37;1.27;;;22.40;43.30;;;;;;5008261;28;20441;-61
2022/10/11 01:07:17;;;;;;;1.23;1.13;;;22.40;43.30;;;;;;5002016;28;20456;-61
2022/10/11 01:09:43;;;;;;;1.60;1.20;;;22.40;43.30;;;;;;5008685;28;20467;-62
2022/10/11 01:12:19;;;;;;;1.33;1.23;;;22.40;43.30;;;;;;5005471;28;20464;-64
2022/10/11 01:15:29;;;;;;;1.43;1.30;;;22.40;43.30;;;;;;5006847;28;20635;-63
2022/10/11 01:18:12;;;;;;;1.73;1.50;;;22.40;43.20;;;;;;5010174;28;20452;-63
2022/10/11 01:21:04;;;;;;;1.30;1.20;;;22.40;43.30;;;;;;5005986;28;20455;-62
2022/10/11 01:23:36;;;;;;;1.40;1.30;;;22.40;43.30;;;;;;5008154;28;20468;-61
2022/10/11 01:26:19;;;;;;;1.43;1.33;;;22.40;43.30;;;;;;5015801;28;20448;-61
2022/10/11 01:29:19;;;;;;;1.47;1.37;;;22.40;43.30;;;;;;5012327;28;20470;-60
2022/10/11 01:31:55;;;;;;;1.40;1.30;;;22.40;43.30;;;;;;5008992;28;20517;-64
2022/10/11 01:34:21;;;;;;;1.30;1.20;;;22.40;43.30;;;;;;5008007;28;20460;-64
2022/10/11 01:36:54;;;;;;;1.23;1.13;;;22.40;43.30;;;;;;5014437;28;20468;-61
2022/10/11 01:39:37;;;;;;;1.50;1.20;;;22.40;43.40;;;;;;5012990;28;20235;-61
2022/10/11 01:42:05;;;;;;;1.33;1.23;;;22.40;43.30;;;;;;5014554;28;20486;-61
2022/10/11 01:44:33;;;;;;;1.47;1.27;;;22.40;43.40;;;;;;5014440;28;20468;-60
2022/10/11 01:46:58;;;;;;;1.30;1.20;;;22.40;43.40;;;;;;5013916;28;20524;-65
2022/10/11 01:49:24;;;;;;;1.40;1.30;;;22.40;43.40;;;;;;5006712;28;20460;-63
2022/10/11 01:51:52;;;;;;;1.30;1.20;;;22.40;43.40;;;;;;5006751;28;20223;-60
2022/10/11 01:54:43;;;;;;;1.37;1.27;;;22.40;43.30;;;;;;5011933;28;20325;-65
2022/10/11 01:57:45;;;;;;;1.50;1.40;;;22.40;43.40;;;;;;5017239;28;20597;-61
2022/10/11 02:00:21;;;;;;;1.20;1.10;;;22.40;43.40;;;;;;5013893;28;20542;-61
2022/10/11 02:03:12;;;;;;;1.40;1.30;;;22.30;43.30;;;;;;5013644;28;20471;-62
2022/10/11 02:06:05;;;;;;;1.27;1.17;;;22.30;43.30;;;;;;5003628;28;22764;-62
2022/10/11 02:08:58;;;;;;;1.30;1.20;;;22.40;43.40;;;;;;5006904;28;20744;-66
2022/10/11 02:11:29;;;;;;;1.30;1.20;;;22.30;43.30;;;;;;5011092;28;20559;-61
2022/10/11 02:14:02;;;;;;;1.20;1.10;;;22.30;43.30;;;;;;5014345;28;20935;-64
2022/10/11 02:16:34;;;;;;;1.30;1.20;;;22.30;43.30;;;;;;5013813;28;20802;-63
2022/10/11 02:19:03;;;;;;;1.50;0.90;;;22.40;43.40;;;;;;5011530;28;21131;-61
2022/10/11 02:21:33;;;;;;;1.20;1.10;;;22.30;43.30;;;;;;5012307;28;20460;-66
2022/10/11 02:24:20;;;;;;;1.30;1.20;;;22.40;43.40;;;;;;5010254;28;20476;-61
2022/10/11 02:26:51;;;;;;;1.27;1.17;;;22.30;43.30;;;;;;5011610;28;20542;-61
2022/10/11 02:29:19;;;;;;;1.30;1.20;;;22.30;43.30;;;;;;5007422;28;20496;-65
2022/10/11 02:31:46;;;;;;;2.47;1.10;;;22.30;43.40;;;;;;5012202;28;20461;-65
2022/10/11 02:34:26;;;;;;;1.03;0.93;;;22.30;43.30;;;;;;5015987;28;20455;-60
2022/10/11 02:37:19;;;;;;;1.30;1.20;;;22.30;43.30;;;;;;5019278;28;20477;-65
2022/10/11 02:40:15;;;;;;;1.20;1.10;;;22.30;43.30;;;;;;5021149;28;20505;-62
2022/10/11 02:43:01;;;;;;;1.50;1.40;;;22.30;43.30;;;;;;5014386;28;20539;-63
2022/10/11 02:45:38;;;;;;;1.10;1.00;;;22.40;43.40;;;;;;5011858;28;20886;-62
2022/10/11 02:48:06;;;;;;;1.20;1.10;;;22.30;43.30;;;;;;5007419;28;21942;-66
2022/10/11 02:50:31;;;;;;;1.37;1.27;;;22.30;43.40;;;;;;5015260;28;20468;-60
2022/10/11 02:52:57;;;;;;;1.20;1.10;;;22.30;43.30;;;;;;5007730;28;20519;-62
2022/10/11 02:55:23;;;;;;;1.20;1.10;;;22.30;43.30;;;;;;5007203;28;20229;-61
2022/10/11 02:57:48;;;;;;;1.20;1.10;;;22.30;43.40;;;;;;4991512;28;20238;-60
2022/10/11 03:00:14;;;;;;;1.30;1.20;;;22.30;43.40;;;;;;5012358;28;20304;-61
2022/10/11 03:02:40;;;;;;;1.33;1.23;;;22.30;43.30;;;;;;5008980;28;20261;-64
2022/10/11 03:05:06;;;;;;;1.20;1.10;;;22.30;43.30;;;;;;5009500;28;20799;-66
2022/10/11 03:07:31;;;;;;;1.40;1.30;;;22.30;43.40;;;;;;5020172;28;20725;-64
2022/10/11 03:09:57;;;;;;;1.07;0.97;;;22.30;43.30;;;;;;5011732;28;20476;-60
2022/10/11 03:12:22;;;;;;;1.17;1.07;;;22.30;43.30;;;;;;5017781;28;20223;-60
2022/10/11 03:14:48;;;;;;;1.10;1.00;;;22.30;43.30;;;;;;5015400;28;20227;-60
2022/10/11 03:17:13;;;;;;;1.20;1.10;;;22.30;43.30;;;;;;5006992;28;20269;-60
2022/10/11 03:19:39;;;;;;;1.10;1.00;;;22.30;43.30;;;;;;5015549;28;20229;-62
2022/10/11 03:22:04;;;;;;;1.57;1.00;;;22.30;43.30;;;;;;5018938;28;20250;-61
2022/10/11 03:24:30;;;;;;;1.00;1.00;;;22.30;43.40;;;;;;5004169;28;20273;-61
2022/10/11 03:26:55;;;;;;;1.00;1.00;;;22.40;43.40;;;;;;4999107;28;20306;-60
2022/10/11 03:29:21;;;;;;;1.07;0.97;;;22.30;43.40;;;;;;5004881;28;20717;-63
2022/10/11 03:31:46;;;;;;;1.10;1.00;;;22.30;43.30;;;;;;5011622;28;20223;-65
2022/10/11 03:34:12;;;;;;;1.13;1.03;;;22.30;43.40;;;;;;5014703;28;20333;-61
2022/10/11 03:36:38;;;;;;;1.37;1.20;;;22.30;44.10;;;;;;5012106;28;20464;-60
2022/10/11 03:39:03;;;;;;;1.13;1.03;;;22.30;43.30;;;;;;5015768;28;20226;-60
2022/10/11 03:41:29;;;;;;;1.00;0.90;;;22.30;43.30;;;;;;5011591;28;20707;-61
2022/10/11 03:43:55;;;;;;;1.10;1.00;;;22.30;43.30;;;;;;5006483;28;20223;-63
2022/10/11 03:46:21;;;;;;;1.10;1.00;;;22.30;43.30;;;;;;5009939;28;20230;-63
2022/10/11 03:48:46;;;;;;;0.93;0.90;;;22.30;43.50;;;;;;5006939;28;20226;-60
2022/10/11 03:51:13;;;;;;;1.47;1.30;;;22.30;43.30;;;;;;5014074;28;20223;-61
2022/10/11 03:53:38;;;;;;;2.40;1.10;;;22.30;43.30;;;;;;5015242;28;20322;-61
2022/10/11 03:56:04;;;;;;;1.00;0.90;;;22.30;43.30;;;;;;5016757;28;20451;-62
2022/10/11 03:58:30;;;;;;;1.10;1.00;;;22.30;43.30;;;;;;5017394;28;20261;-61
2022/10/11 04:00:56;;;;;;;1.20;1.10;;;22.30;43.30;;;;;;5012198;28;20260;-61
2022/10/11 04:03:21;;;;;;;1.23;1.13;;;22.30;43.30;;;;;;5008109;28;20283;-68
2022/10/11 04:05:47;;;;;;;1.17;1.07;;;22.30;43.30;;;;;;5003878;28;20224;-63
2022/10/11 04:08:12;;;;;;;0.90;0.90;;;22.30;43.30;;;;;;5011522;28;20230;-63
2022/10/11 04:10:38;;;;;;;1.10;1.00;;;22.30;43.30;;;;;;5016204;28;20235;-65
2022/10/11 04:13:04;;;;;;;1.47;0.93;;;22.30;43.30;;;;;;5009868;28;20240;-62
2022/10/11 04:15:30;;;;;;;1.20;1.10;;;22.30;43.30;;;;;;5013588;28;21064;-63
2022/10/11 04:17:56;;;;;;;1.13;1.03;;;22.30;43.40;;;;;;5012042;28;20221;-65
2022/10/11 04:20:21;;;;;;;1.00;1.00;;;22.30;43.30;;;;;;5003346;28;20228;-66
2022/10/11 04:22:47;;;;;;;1.00;0.90;;;22.30;43.40;;;;;;5010076;28;20223;-61
2022/10/11 04:25:12;;;;;;;2.33;1.20;;;22.30;43.30;;;;;;5012015;28;20246;-62
2022/10/11 04:27:38;;;;;;;0.97;0.97;;;22.30;43.30;;;;;;5000794;28;20230;-62
2022/10/11 04:30:04;;;;;;;1.20;1.10;;;22.30;43.30;;;;;;5004122;28;20235;-63
2022/10/11 04:32:30;;;;;;;1.20;1.10;;;22.30;43.30;;;;;;5011427;28;20227;-61
2022/10/11 04:34:56;;;;;;;1.10;1.00;;;22.30;43.40;;;;;;5013345;28;20464;-62
2022/10/11 04:37:21;;;;;;;1.00;0.90;;;22.40;43.50;;;;;;5014899;28;20231;-62
2022/10/11 04:39:47;;;;;;;1.77;0.90;;;22.30;43.30;;;;;;5011621;28;21078;-64
2022/10/11 04:42:12;;;;;;;1.17;0.97;;;22.30;43.30;;;;;;5016621;28;20219;-64
2022/10/11 04:44:38;;;;;;;1.43;0.80;;;22.30;43.20;;;;;;5009698;28;20239;-63
2022/10/11 04:47:03;;;;;;;1.90;1.10;;;22.30;43.20;;;;;;5013852;28;20227;-62
2022/10/11 04:49:29;;;;;;;1.00;0.90;;;22.40;43.30;;;;;;5003800;28;20227;-63
2022/10/11 04:51:55;;;;;;;1.67;1.17;;;22.40;43.30;;;;;;5013057;28;20646;-64
2022/10/11 04:54:20;;;;;;;1.00;0.90;;;22.40;43.20;;;;;;5010312;28;20229;-59
2022/10/11 04:56:46;;;;;;;1.00;0.90;;;22.40;44.00;;;;;;5004017;28;20299;-64
2022/10/11 04:59:11;;;;;;;1.10;1.00;;;22.40;43.20;;;;;;5006122;28;20253;-66
2022/10/11 05:01:37;;;;;;;1.20;1.10;;;22.40;43.30;;;;;;5003766;28;20792;-65
2022/10/11 05:04:03;;;;;;;1.00;0.90;;;22.40;43.20;;;;;;5004142;28;20270;-64
2022/10/11 05:06:28;;;;;;;1.27;1.17;;;22.40;43.20;;;;;;5005601;28;20257;-62
2022/10/11 05:08:54;;;;;;;0.90;0.90;;;22.40;43.20;;;;;;5005359;28;20226;-60
2022/10/11 05:11:19;;;;;;;1.10;1.00;;;22.40;43.30;;;;;;5010982;28;20241;-63
2022/10/11 05:13:46;;;;;;;1.20;1.10;;;22.40;43.20;;;;;;4977187;28;22710;-62
2022/10/11 05:16:12;;;;;;;1.00;0.90;;;22.40;43.20;;;;;;5011295;28;20234;-60
2022/10/11 05:18:38;;;;;;;1.00;0.90;;;22.40;43.30;;;;;;5011838;28;21398;-65
2022/10/11 05:21:17;;;;;;;1.10;1.00;;;22.40;43.30;;;;;;5012959;28;20234;-62
2022/10/11 05:23:44;;;;;;;0.80;0.80;;;22.40;43.20;;;;;;4996688;28;21549;-64
2022/10/11 05:26:10;;;;;;;0.87;0.87;;;22.40;43.20;;;;;;4999276;28;20685;-63
2022/10/11 05:28:35;;;;;;;1.00;0.97;;;22.40;43.20;;;;;;5007896;28;20452;-61
2022/10/11 05:31:01;;;;;;;0.97;0.93;;;22.40;43.20;;;;;;5006241;28;20329;-61
2022/10/11 05:33:26;;;;;;;1.00;0.93;;;22.40;43.20;;;;;;5005140;28;20238;-60
2022/10/11 05:35:52;;;;;;;0.80;0.77;;;22.40;43.20;;;;;;5007852;28;20298;-62
2022/10/11 05:38:18;;;;;;;1.00;0.90;;;22.40;43.30;;;;;;4987381;28;20227;-65
2022/10/11 05:40:43;;;;;;;1.07;0.97;;;22.40;43.30;;;;;;5001682;28;20249;-61
2022/10/11 05:43:09;;;;;;;1.30;0.97;;;22.40;44.10;;;;;;5012683;28;20542;-62
2022/10/11 05:45:38;;;;;;;1.20;1.10;;;22.30;43.20;;;;;;5005699;28;20272;-61
2022/10/11 05:48:05;;;;;;;0.90;0.90;;;22.40;43.30;;;;;;5003398;28;20226;-61
2022/10/11 05:50:30;;;;;;;1.00;0.90;;;22.30;43.20;;;;;;5012303;28;20460;-66
2022/10/11 05:52:56;;;;;;;1.00;0.90;;;22.40;43.30;;;;;;5003281;28;20470;-61
2022/10/11 05:55:21;;;;;;;1.00;1.00;;;22.30;43.30;;;;;;5009239;28;20284;-62
2022/10/11 05:57:47;;;;;;;0.97;0.90;;;22.40;43.30;;;;;;5011654;28;20231;-62
2022/10/11 06:00:13;;;;;;;1.10;1.00;;;22.40;43.30;;;;;;5006621;28;20239;-61
2022/10/11 06:02:39;;;;;;;1.10;1.00;;;22.30;43.20;;;;;;5007266;28;20238;-62
2022/10/11 06:05:04;;;;;;;0.80;0.80;;;22.40;43.30;;;;;;4987214;28;21290;-64
2022/10/11 06:07:30;;;;;;;2.03;0.90;;;22.40;43.30;;;;;;5002232;28;22153;-64
2022/10/11 06:09:56;;;;;;;1.03;0.93;;;22.30;43.20;;;;;;5008271;28;20962;-63
2022/10/11 06:12:21;;;;;;;1.60;0.97;;;22.30;43.20;;;;;;5008008;28;20695;-61
2022/10/11 06:14:47;;;;;;;1.20;1.07;;;22.40;43.30;;;;;;4996268;28;20655;-64
2022/10/11 06:17:13;;;;;;;1.10;1.00;;;22.40;43.30;;;;;;5012412;28;20306;-64
2022/10/11 06:19:38;;;;;;;1.37;1.27;;;22.30;43.20;;;;;;5007499;28;20227;-62
2022/10/11 06:22:04;;;;;;;1.20;1.10;;;22.40;43.20;;;;;;5009108;28;20227;-65
2022/10/11 06:24:29;;;;;;;0.80;0.80;;;22.40;43.30;;;;;;4998250;28;20227;-62
2022/10/11 06:26:55;;;;;;;0.83;0.83;;;22.40;43.30;;;;;;5001322;28;20218;-66
2022/10/11 06:29:21;;;;;;;0.97;0.87;;;22.40;43.30;;;;;;5006392;28;20227;-62
2022/10/11 06:31:47;;;;;;;1.00;1.00;;;22.40;43.30;;;;;;5002496;28;21973;-60
2022/10/11 06:34:14;;;;;;;1.00;0.90;;;22.40;43.30;;;;;;4998986;28;20483;-66
2022/10/11 06:36:39;;;;;;;1.67;1.10;;;22.40;43.30;;;;;;5005819;28;20465;-60
2022/10/11 06:39:05;;;;;;;1.10;0.90;;;22.40;43.30;;;;;;5004216;28;20511;-62
2022/10/11 06:41:30;;;;;;;1.23;0.90;;;22.40;43.20;;;;;;5004222;28;20251;-61
2022/10/11 06:43:56;;;;;;;1.10;1.00;;;22.40;43.20;;;;;;5000387;28;20282;-66
2022/10/11 06:46:24;;;;;;;1.10;1.00;;;22.30;43.20;;;;;;5000357;28;20226;-64
2022/10/11 06:48:51;;;;;;;1.80;1.03;;;22.40;43.20;;;;;;5000508;28;20275;-63
2022/10/11 06:51:18;;;;;;;0.90;0.90;;;22.30;43.10;;;;;;4997830;28;20460;-61
2022/10/11 06:53:49;;;;;;;1.20;1.10;;;22.40;43.30;;;;;;5000297;28;20447;-64
2022/10/11 06:56:14;;;;;;;1.17;1.00;;;22.40;43.20;;;;;;4996089;28;20973;-64
2022/10/11 06:58:40;;;;;;;1.17;1.07;;;22.40;43.20;;;;;;4985372;28;20457;-62
2022/10/11 07:01:11;;;;;;;1.10;1.00;;;22.40;43.20;;;;;;5001697;28;20754;-65
2022/10/11 07:03:37;;;;;;;1.00;0.90;;;22.30;43.10;;;;;;5006708;28;20301;-64
2022/10/11 07:06:11;;;;;;;1.20;1.10;;;22.30;43.20;;;;;;4994867;28;20469;-64
2022/10/11 07:08:37;;;;;;;0.97;0.87;;;22.30;43.10;;;;;;4994538;28;20459;-62
2022/10/11 07:11:14;;;;;;;1.17;1.07;;;22.30;43.10;;;;;;4997883;28;20483;-62
2022/10/11 07:13:40;;;;;;;1.00;0.90;;;22.30;43.20;;;;;;4996077;28;20582;-63
2022/10/11 07:16:08;;;;;;;1.17;1.07;;;22.30;43.20;;;;;;5005416;28;20452;-67
2022/10/11 07:18:34;;;;;;;1.37;1.27;;;22.30;43.20;;;;;;5011045;28;20452;-63
2022/10/11 07:21:05;;;;;;;1.13;1.03;;;22.30;43.20;;;;;;5005609;28;20471;-64
2022/10/11 07:23:30;;;;;;;1.23;1.13;;;22.30;43.20;;;;;;5004699;28;20227;-63
2022/10/11 07:25:56;;;;;;;1.40;1.30;;;22.30;43.20;;;;;;5006673;28;20475;-64
2022/10/11 07:28:22;;;;;;;1.20;1.10;;;22.30;43.20;;;;;;5009416;28;20729;-65
2022/10/11 07:30:48;;;;;;;1.17;1.07;;;22.30;43.20;;;;;;5007506;28;20223;-65
2022/10/11 07:33:14;;;;;;;1.20;1.10;;;22.30;43.20;;;;;;5002211;28;20460;-60
2022/10/11 07:35:39;;;;;;;1.30;1.20;;;22.30;43.20;;;;;;5012016;28;20511;-61
2022/10/11 07:38:06;;;;;;;5.63;2.07;;;22.30;43.10;;;;;;5006683;28;20233;-64
2022/10/11 07:40:32;;;;;;;2.57;2.10;;;22.30;42.90;;;;;;5002608;28;20235;-65
2022/10/11 07:42:59;;;;;;;2.60;1.30;;;22.30;42.60;;;;;;5008966;28;20460;-71
2022/10/11 07:45:27;;;;;;;2.90;1.70;;;22.40;42.30;;;;;;5007854;28;20568;-63
2022/10/11 07:47:57;;;;;;;2.07;1.97;;;22.40;42.00;;;;;;5010353;28;20472;-63
2022/10/11 07:50:23;;;;;;;2.20;2.00;;;22.30;41.60;;;;;;5007975;28;20464;-62
2022/10/11 07:52:49;;;;;;;1.20;1.10;;;22.40;41.40;;;;;;4995916;28;20475;-62
2022/10/11 07:55:15;;;;;;;3.10;1.50;;;22.40;41.30;;;;;;5013856;28;20463;-64
2022/10/11 07:57:41;;;;;;;1.73;1.10;;;22.30;41.20;;;;;;5008257;28;20462;-61
2022/10/11 08:00:07;;;;;;;1.30;1.10;;;22.40;41.60;;;;;;5005686;28;20707;-64
2022/10/11 08:02:32;;;;;;;1.00;1.00;;;22.30;41.70;;;;;;5011873;28;20669;-64
2022/10/11 08:04:58;;;;;;;1.47;1.37;;;22.30;41.80;;;;;;5009268;28;20464;-62
2022/10/11 08:07:24;;;;;;;1.40;1.10;;;22.30;42.00;;;;;;5005605;28;20219;-63
2022/10/11 08:09:49;;;;;;;2.10;1.17;;;22.40;42.20;;;;;;5003687;28;20226;-61
2022/10/11 08:12:15;;;;;;;1.20;1.00;;;22.30;42.10;;;;;;5014341;28;20229;-63
2022/10/11 08:14:40;;;;;;;1.40;1.30;;;22.40;42.30;;;;;;5007586;28;20233;-61
2022/10/11 08:17:07;;;;;;;1.20;1.10;;;22.40;42.40;;;;;;4982823;28;20860;-67
2022/10/11 08:19:33;;;;;;;1.23;1.10;;;22.30;42.40;;;;;;5007257;28;20269;-63
2022/10/11 08:21:59;;;;;;;1.37;1.27;;;22.30;42.30;;;;;;5011739;28;20933;-65
2022/10/11 08:24:24;;;;;;;1.30;1.20;;;22.40;42.50;;;;;;5009256;28;20306;-62
2022/10/11 08:26:51;;;;;;;1.37;1.27;;;22.40;42.50;;;;;;5016071;28;20247;-64
2022/10/11 08:29:16;;;;;;;1.10;1.00;;;22.40;42.50;;;;;;5016683;28;20231;-63
2022/10/11 08:31:43;;;;;;;3.10;1.13;;;22.40;42.60;;;;;;5011754;28;20469;-61
2022/10/11 08:34:11;;;;;;;1.20;1.10;;;22.40;42.60;;;;;;5013929;28;20460;-61
2022/10/11 08:36:37;;;;;;;1.20;1.10;;;22.40;42.70;;;;;;5010214;28;20460;-62
2022/10/11 08:39:05;;;;;;;1.43;1.33;;;22.40;42.70;;;;;;5001840;28;20480;-63
2022/10/11 08:41:49;;;;;;;1.27;1.17;;;22.40;42.70;;;;;;5007916;28;20249;-65
2022/10/11 08:44:39;;;;;;;1.47;1.30;;;22.40;42.70;;;;;;5006901;28;20971;-61
2022/10/11 08:47:25;;;;;;;1.50;1.30;;;22.40;42.70;;;;;;5007363;28;28312;-63
2022/10/11 08:49:50;;;;;;;1.40;1.30;;;22.40;42.70;;;;;;5007696;28;21052;-66
2022/10/11 08:52:27;;;;;;;1.50;1.40;;;22.40;42.80;;;;;;5010403;28;20455;-62
2022/10/11 08:55:31;;;;;;;1.50;1.40;;;22.40;42.80;;;;;;5012493;28;20775;-62
2022/10/11 08:57:58;;;;;;;1.37;1.27;;;22.40;42.80;;;;;;4998614;28;20996;-62
2022/10/11 09:00:27;;;;;;;1.77;1.50;;;22.40;43.60;;;;;;5014918;28;20503;-61
2022/10/11 09:03:04;;;;;;;1.30;1.20;;;22.40;42.80;;;;;;5006383;28;20526;-61
2022/10/11 09:06:00;;;;;;;1.37;1.27;;;22.40;42.90;;;;;;5006175;28;20483;-63
2022/10/11 09:08:40;;;;;;;1.37;1.20;;;22.40;42.80;;;;;;5011076;28;20492;-61
2022/10/11 09:11:11;;;;;;;1.17;1.00;;;22.40;42.80;;;;;;4994940;28;20470;-62
2022/10/11 09:14:02;;;;;;;1.50;1.20;;;22.40;43.00;;;;;;5003114;28;20539;-65
2022/10/11 09:16:54;;;;;;;1.30;1.20;;;22.40;42.90;;;;;;4999024;28;20461;-65
2022/10/11 09:19:54;;;;;;;1.40;1.30;;;22.40;42.90;;;;;;5010611;28;20456;-64
2022/10/11 09:22:28;;;;;;;1.10;1.00;;;22.40;42.80;;;;;;5002777;28;20460;-62
2022/10/11 09:25:21;;;;;;;1.73;1.30;;;22.40;43.00;;;;;;5010344;28;20503;-63
2022/10/11 09:28:01;;;;;;;2.20;1.30;;;22.40;42.80;;;;;;5006661;28;20561;-63
2022/10/11 09:30:26;;;;;;;1.67;1.57;;;22.40;42.80;;;;;;5008129;28;20468;-65
2022/10/11 09:33:16;;;;;;;2.57;1.83;;;22.40;42.70;;;;;;5012040;28;20474;-66
2022/10/11 09:35:45;;;;;;;1.60;1.50;;;22.30;42.60;;;;;;5004695;28;20272;-61
2022/10/11 09:38:21;;;;;;;3.20;1.43;;;22.30;42.50;;;;;;4995726;28;20460;-61
2022/10/11 09:40:57;;;;;;;1.60;1.50;;;22.30;42.30;;;;;;5004985;28;20500;-61
2022/10/11 09:43:23;;;;;;;4.93;1.90;;;22.30;42.30;;;;;;5010807;28;20564;-63
2022/10/11 09:45:48;;;;;;;2.03;1.60;;;22.30;42.10;;;;;;5014045;28;20456;-63
2022/10/11 09:48:21;;;;;;;1.83;1.70;;;22.30;42.00;;;;;;5016379;28;20219;-61
2022/10/11 09:50:48;;;;;;;2.23;1.60;;;22.30;41.90;;;;;;5012858;28;20231;-61
2022/10/11 09:53:14;;;;;;;2.13;2.00;;;22.30;41.80;;;;;;5011199;28;20606;-61
2022/10/11 09:55:51;;;;;;;1.93;1.73;;;22.30;41.70;;;;;;5006538;28;20460;-64
2022/10/11 09:58:29;;;;;;;1.90;1.80;;;22.30;41.60;;;;;;4990034;28;20418;-62
2022/10/11 10:01:07;;;;;;;3.03;1.90;;;22.30;41.50;;;;;;5010324;28;20460;-64
2022/10/11 10:03:37;;;;;;;2.33;1.70;;;22.30;41.20;;;;;;5009351;28;20607;-62
2022/10/11 10:06:15;;;;;;;2.27;1.80;;;22.30;41.20;;;;;;5010114;28;20439;-60
2022/10/11 10:08:42;;;;;;;1.83;1.73;;;22.30;41.20;;;;;;5006813;28;21005;-60
2022/10/11 10:11:09;;;;;;;2.03;1.93;;;22.30;41.20;;;;;;5001894;28;20448;-63
2022/10/11 10:13:51;;;;;;;1.87;1.77;;;22.20;41.10;;;;;;5005942;28;20440;-62
2022/10/11 10:16:31;;;;;;;2.17;1.97;;;22.30;41.20;;;;;;5003254;28;21265;-65
2022/10/11 10:18:59;;;;;;;2.10;1.90;;;22.30;41.20;;;;;;5006774;28;20888;-64
2022/10/11 10:21:29;;;;;;;2.07;1.87;;;22.30;41.20;;;;;;5006453;28;20485;-66
2022/10/11 10:23:56;;;;;;;2.60;2.40;;;22.20;41.10;;;;;;5014383;28;21322;-63
2022/10/11 10:26:24;;;;;;;3.63;2.10;;;22.20;41.10;;;;;;5010298;28;20519;-64
2022/10/11 10:29:04;;;;;;;2.23;2.13;;;22.20;41.10;;;;;;5005137;28;20460;-63
2022/10/11 10:31:36;;;;;;;2.20;2.00;;;22.20;41.10;;;;;;4997451;28;20476;-66
2022/10/11 10:34:09;;;;;;;2.17;1.97;;;22.20;41.10;;;;;;5006259;28;20469;-65
2022/10/11 10:36:38;;;;;;;2.27;2.17;;;22.30;41.20;;;;;;5008116;28;20500;-61
2022/10/11 10:39:36;;;;;;;2.13;2.03;;;22.20;41.10;;;;;;5011187;28;20582;-61
2022/10/11 10:42:03;;;;;;;2.97;2.77;;;22.30;41.20;;;;;;5016085;28;20460;-64
2022/10/11 10:44:29;;;;;;;2.80;2.60;;;22.20;41.10;;;;;;5010092;28;20959;-63
2022/10/11 10:47:04;;;;;;;2.53;2.20;;;22.20;41.10;;;;;;5022822;28;20455;-63
2022/10/11 10:49:51;;;;;;;2.23;2.13;;;22.20;41.20;;;;;;5014640;28;20229;-63
2022/10/11 10:52:54;;;;;;;2.83;2.60;;;22.20;41.10;;;;;;5015044;28;20482;-67
2022/10/11 10:55:29;;;;;;;2.37;2.17;;;22.20;41.10;;;;;;5014804;28;20466;-65
2022/10/11 10:58:24;;;;;;;2.40;2.30;;;22.20;41.10;;;;;;5020685;28;20493;-62
2022/10/11 11:00:54;;;;;;;2.50;2.30;;;22.20;41.10;;;;;;4995244;28;20474;-63
2022/10/11 11:03:33;;;;;;;2.63;2.53;;;22.20;41.20;;;;;;4999996;28;20499;-66
2022/10/11 11:06:11;;;;;;;2.93;2.70;;;22.20;41.10;;;;;;5017745;28;20456;-64
2022/10/11 11:08:46;;;;;;;2.70;2.50;;;22.20;41.10;;;;;;5018770;28;20898;-62
2022/10/11 11:11:48;;;;;;;3.20;3.00;;;22.20;41.10;;;;;;5020450;28;20523;-62
2022/10/11 11:14:14;;;;;;;2.33;2.23;;;22.20;41.10;;;;;;5004749;28;20467;-66
2022/10/11 11:16:54;;;;;;;3.17;2.87;;;22.20;41.10;;;;;;5004378;28;20952;-63
2022/10/11 11:20:02;;;;;;;3.40;3.20;;;22.20;41.10;;;;;;5017798;28;20242;-64
2022/10/11 11:22:44;;;;;;;3.27;3.07;;;22.30;41.20;;;;;;5013909;28;20470;-61
2022/10/11 11:25:28;;;;;;;3.40;3.20;;;22.20;41.20;;;;;;5011427;28;20472;-63
2022/10/11 11:28:39;;;;;;;2.87;2.67;;;22.20;41.20;;;;;;5008476;28;20471;-65
2022/10/11 11:31:41;;;;;;;3.37;3.07;;;22.20;41.10;;;;;;5002113;28;20459;-64
2022/10/11 11:34:22;;;;;;;3.03;2.83;;;22.20;41.10;;;;;;5000097;28;20794;-61
2022/10/11 11:36:56;;;;;;;3.30;3.10;;;22.20;41.10;;;;;;5019500;28;20489;-65
2022/10/11 11:39:43;;;;;;;3.37;3.17;;;22.20;41.10;;;;;;5017716;28;20487;-62
2022/10/11 11:42:23;;;;;;;3.50;3.30;;;22.20;41.10;;;;;;5015646;28;21177;-66
2022/10/11 11:44:50;;;;;;;4.30;3.13;;;22.20;41.10;;;;;;5006967;28;20989;-62
2022/10/11 11:47:36;;;;;;;3.50;3.30;;;22.20;41.10;;;;;;5005443;28;20950;-65
2022/10/11 11:50:19;;;;;;;3.80;3.60;;;22.20;41.10;;;;;;5002712;28;20478;-63
2022/10/11 11:52:50;;;;;;;3.60;3.30;;;22.20;41.10;;;;;;4999062;28;20468;-67
2022/10/11 11:55:32;;;;;;;3.50;3.30;;;22.20;41.10;;;;;;5001133;28;20500;-63
2022/10/11 11:58:14;;;;;;;3.30;3.10;;;22.20;41.10;;;;;;4995382;28;20468;-67
2022/10/11 12:01:05;;;;;;;3.40;3.20;;;22.30;41.20;;;;;;5004477;28;20463;-64
2022/10/11 12:03:38;;;;;;;4.20;3.80;;;22.20;41.10;;;;;;5013537;28;20456;-65
2022/10/11 12:06:13;;;;;;;3.80;3.60;;;22.30;41.20;;;;;;5014053;28;20479;-64
2022/10/11 12:08:42;;;;;;;4.00;3.60;;;22.30;41.20;;;;;;5012155;28;20485;-62
2022/10/11 12:11:24;;;;;;;3.37;3.13;;;22.30;41.20;;;;;;5005583;28;20449;-62
2022/10/11 12:13:51;;;;;;;4.50;4.30;;;22.30;41.20;;;;;;4986291;28;20643;-64
2022/10/11 12:16:18;;;;;;;3.57;3.37;;;22.30;41.20;;;;;;5003890;28;20466;-63
2022/10/11 12:19:10;;;;;;;3.50;3.30;;;22.30;41.30;;;;;;4997036;28;20574;-62
2022/10/11 12:21:38;;;;;;;3.67;3.47;;;22.30;41.20;;;;;;4993233;28;20828;-64
2022/10/11 12:24:17;;;;;;;3.67;3.30;;;22.20;41.10;;;;;;4999000;28;20477;-61
2022/10/11 12:26:48;;;;;;;3.53;3.33;;;22.30;41.20;;;;;;4998642;28;20464;-66
2022/10/11 12:29:17;;;;;;;3.60;3.30;;;22.30;41.20;;;;;;5000196;28;20480;-61
2022/10/11 12:32:03;;;;;;;3.53;3.23;;;22.20;41.10;;;;;;4986058;28;20460;-66
2022/10/11 12:34:40;;;;;;;3.67;3.37;;;22.20;41.10;;;;;;4951770;28;20468;-63
2022/10/11 12:37:26;;;;;;;3.50;3.30;;;22.20;41.90;;;;;;4997554;28;20448;-65
2022/10/11 12:39:53;;;;;;;3.53;3.33;;;22.20;41.10;;;;;;4993921;28;20464;-66
2022/10/11 12:42:30;;;;;;;3.57;3.37;;;22.20;41.10;;;;;;5006444;28;21142;-65
2022/10/11 12:45:29;;;;;;;3.17;2.97;;;22.20;41.10;;;;;;4996776;28;21030;-66
2022/10/11 12:48:02;;;;;;;3.30;3.10;;;22.20;41.10;;;;;;4977143;28;20460;-62
2022/10/11 12:50:42;;;;;;;3.67;3.47;;;22.20;41.10;;;;;;4999506;28;20472;-60
2022/10/11 12:53:19;;;;;;;3.97;3.40;;;22.20;41.10;;;;;;5001049;28;20476;-64
2022/10/11 12:55:49;;;;;;;3.30;3.10;;;22.20;41.10;;;;;;4988319;28;20452;-64
2022/10/11 12:58:27;;;;;;;3.43;3.23;;;22.20;41.10;;;;;;5002598;28;20842;-63
2022/10/11 13:00:56;;;;;;;3.30;3.10;;;22.20;41.10;;;;;;4999416;28;20542;-67
2022/10/11 13:03:40;;;;;;;3.70;3.30;;;22.20;41.10;;;;;;5001128;28;20472;-61
2022/10/11 13:06:25;;;;;;;5.07;3.60;;;22.20;41.10;;;;;;5010733;28;20451;-61
2022/10/11 13:09:16;;;;;;;3.70;3.50;;;22.20;41.10;;;;;;4994305;28;20479;-67
2022/10/11 13:11:53;;;;;;;3.20;3.00;;;22.20;41.10;;;;;;4991041;28;20453;-61